sensor_id;sensor_type;location;lat;lon;timestamp;pressure;altitude;pressure_sealevel;temperature;humidity
8039;BME280;4062;49.844;8.120;2022-07-29T00:00:29;99190.38;;;20.70;53.75
8039;BME280;4062;49.844;8.120;2022-07-29T00:02:30;99186.84;;;20.70;53.71
8039;BME280;4062;49.844;8.120;2022-07-29T00:04:35;99186.84;;;20.70;53.80
8039;BME280;4062;49.844;8.120;2022-07-29T00:06:36;99189.53;;;20.70;53.55
8039;BME280;4062;49.844;8.120;2022-07-29T00:08:36;99190.38;;;20.70;53.56
8039;BME280;4062;49.844;8.120;2022-07-29T00:10:37;99201.97;;;20.71;53.49
8039;BME280;4062;49.844;8.120;2022-07-29T00:12:38;99213.69;;;20.70;53.82
8039;BME280;4062;49.844;8.120;2022-07-29T00:14:39;99209.16;;;20.70;53.61
8039;BME280;4062;49.844;8.120;2022-07-29T00:16:39;99211.84;;;20.70;53.90
8039;BME280;4062;49.844;8.120;2022-07-29T00:18:40;99208.31;;;20.70;53.97
8039;BME280;4062;49.844;8.120;2022-07-29T00:20:41;99196.72;;;20.69;53.92
8039;BME280;4062;49.844;8.120;2022-07-29T00:22:42;99197.56;;;20.70;53.62
8039;BME280;4062;49.844;8.120;2022-07-29T00:24:42;99186.84;;;20.70;53.51
8039;BME280;4062;49.844;8.120;2022-07-29T00:26:43;99191.34;;;20.69;53.87
8039;BME280;4062;49.844;8.120;2022-07-29T00:28:44;99187.69;;;20.70;53.63
8039;BME280;4062;49.844;8.120;2022-07-29T00:30:44;99185.00;;;20.70;53.43
8039;BME280;4062;49.844;8.120;2022-07-29T00:32:45;99194.03;;;20.69;53.51
8039;BME280;4062;49.844;8.120;2022-07-29T00:34:46;99189.53;;;20.70;53.93
8039;BME280;4062;49.844;8.120;2022-07-29T00:37:05;99184.16;;;20.70;53.49
8039;BME280;4062;49.844;8.120;2022-07-29T00:39:06;99195.84;;;20.69;53.86
8039;BME280;4062;49.844;8.120;2022-07-29T00:41:06;99181.47;;;20.70;53.94
8039;BME280;4062;49.844;8.120;2022-07-29T00:43:08;99175.25;;;20.69;53.50
8039;BME280;4062;49.844;8.120;2022-07-29T00:45:09;99167.19;;;20.69;54.02
8039;BME280;4062;49.844;8.120;2022-07-29T00:47:11;99152.91;;;20.69;53.68
8039;BME280;4062;49.844;8.120;2022-07-29T00:49:13;99142.16;;;20.69;53.61
8039;BME280;4062;49.844;8.120;2022-07-29T00:51:14;99143.88;;;20.70;53.89
8039;BME280;4062;49.844;8.120;2022-07-29T00:53:15;99143.03;;;20.69;53.91
8039;BME280;4062;49.844;8.120;2022-07-29T00:55:16;99148.41;;;20.69;53.99
8039;BME280;4062;49.844;8.120;2022-07-29T00:57:17;99137.66;;;20.69;53.75
8039;BME280;4062;49.844;8.120;2022-07-29T00:59:18;99125.22;;;20.68;53.80
8039;BME280;4062;49.844;8.120;2022-07-29T01:01:19;99115.31;;;20.69;54.00
8039;BME280;4062;49.844;8.120;2022-07-29T01:03:20;99109.94;;;20.69;54.05
8039;BME280;4062;49.844;8.120;2022-07-29T01:05:24;99114.47;;;20.68;53.90
8039;BME280;4062;49.844;8.120;2022-07-29T01:07:26;99115.31;;;20.69;53.71
8039;BME280;4062;49.844;8.120;2022-07-29T01:09:28;99122.53;;;20.68;53.94
8039;BME280;4062;49.844;8.120;2022-07-29T01:11:29;99131.41;;;20.69;53.51
8039;BME280;4062;49.844;8.120;2022-07-29T01:13:31;99131.41;;;20.69;53.48
8039;BME280;4062;49.844;8.120;2022-07-29T01:15:43;99118.97;;;20.68;53.68
8039;BME280;4062;49.844;8.120;2022-07-29T01:18:18;99112.63;;;20.69;53.85
8039;BME280;4062;49.844;8.120;2022-07-29T01:23:22;99108.22;;;20.68;53.88
8039;BME280;4062;49.844;8.120;2022-07-29T01:30:42;99093.84;;;20.69;54.02
8039;BME280;4062;49.844;8.120;2022-07-29T01:32:47;99085.78;;;20.69;53.52
8039;BME280;4062;49.844;8.120;2022-07-29T01:35:02;99077.84;;;20.67;54.06
8039;BME280;4062;49.844;8.120;2022-07-29T01:37:18;99077.84;;;20.67;53.95
8039;BME280;4062;49.844;8.120;2022-07-29T01:39:27;99064.44;;;20.67;53.70
8039;BME280;4062;49.844;8.120;2022-07-29T01:41:33;99067.97;;;20.68;53.86
8039;BME280;4062;49.844;8.120;2022-07-29T01:43:54;99070.66;;;20.68;54.14
8039;BME280;4062;49.844;8.120;2022-07-29T01:46:05;99071.53;;;20.68;53.76
8039;BME280;4062;49.844;8.120;2022-07-29T01:50:18;99077.84;;;20.67;53.93
8039;BME280;4062;49.844;8.120;2022-07-29T01:52:36;99069.81;;;20.67;53.76
8039;BME280;4062;49.844;8.120;2022-07-29T01:54:54;99069.81;;;20.67;54.09
8039;BME280;4062;49.844;8.120;2022-07-29T01:56:56;99064.44;;;20.67;53.52
8039;BME280;4062;49.844;8.120;2022-07-29T01:58:59;99062.72;;;20.66;53.78
8039;BME280;4062;49.844;8.120;2022-07-29T02:01:03;99063.56;;;20.67;53.77
8039;BME280;4062;49.844;8.120;2022-07-29T02:03:11;99069.81;;;20.67;53.62
8039;BME280;4062;49.844;8.120;2022-07-29T02:05:17;99066.25;;;20.67;53.82
8039;BME280;4062;49.844;8.120;2022-07-29T02:07:21;99068.94;;;20.67;53.78
8039;BME280;4062;49.844;8.120;2022-07-29T02:09:24;99071.59;;;20.67;54.15
8039;BME280;4062;49.844;8.120;2022-07-29T02:11:26;99074.28;;;20.67;53.70
8039;BME280;4062;49.844;8.120;2022-07-29T02:13:28;99074.28;;;20.67;54.01
8039;BME280;4062;49.844;8.120;2022-07-29T02:15:32;99071.59;;;20.67;54.00
8039;BME280;4062;49.844;8.120;2022-07-29T02:17:42;99072.47;;;20.67;53.96
8039;BME280;4062;49.844;8.120;2022-07-29T02:19:45;99069.81;;;20.67;54.11
8039;BME280;4062;49.844;8.120;2022-07-29T02:21:46;99070.66;;;20.68;54.06
8039;BME280;4062;49.844;8.120;2022-07-29T02:23:48;99061.75;;;20.67;53.64
8039;BME280;4062;49.844;8.120;2022-07-29T02:25:54;99060.88;;;20.67;53.64
8039;BME280;4062;49.844;8.120;2022-07-29T02:27:55;99062.72;;;20.66;53.91
8039;BME280;4062;49.844;8.120;2022-07-29T02:30:01;99062.72;;;20.66;53.84
8039;BME280;4062;49.844;8.120;2022-07-29T02:32:03;99062.72;;;20.66;53.65
8039;BME280;4062;49.844;8.120;2022-07-29T02:34:08;99068.09;;;20.66;53.76
8039;BME280;4062;49.844;8.120;2022-07-29T02:36:09;99068.09;;;20.66;54.14
8039;BME280;4062;49.844;8.120;2022-07-29T02:38:14;99062.72;;;20.66;54.06
8039;BME280;4062;49.844;8.120;2022-07-29T02:40:35;99068.94;;;20.67;54.08
8039;BME280;4062;49.844;8.120;2022-07-29T02:42:39;99063.56;;;20.67;53.75
8039;BME280;4062;49.844;8.120;2022-07-29T02:44:42;99069.88;;;20.66;54.15
8039;BME280;4062;49.844;8.120;2022-07-29T02:47:16;99064.44;;;20.67;53.68
8039;BME280;4062;49.844;8.120;2022-07-29T02:49:38;99062.72;;;20.66;54.08
8039;BME280;4062;49.844;8.120;2022-07-29T02:52:12;99062.72;;;20.66;54.02
8039;BME280;4062;49.844;8.120;2022-07-29T02:54:51;99056.47;;;20.66;53.73
8039;BME280;4062;49.844;8.120;2022-07-29T02:56:55;99051.97;;;20.66;53.96
8039;BME280;4062;49.844;8.120;2022-07-29T02:59:03;99051.97;;;20.66;53.97
8039;BME280;4062;49.844;8.120;2022-07-29T03:01:16;99051.09;;;20.66;53.79
8039;BME280;4062;49.844;8.120;2022-07-29T03:03:19;99048.41;;;20.66;54.04
8039;BME280;4062;49.844;8.120;2022-07-29T03:05:22;99060.03;;;20.66;53.66
8039;BME280;4062;49.844;8.120;2022-07-29T03:07:24;99053.78;;;20.66;54.01
8039;BME280;4062;49.844;8.120;2022-07-29T03:09:26;99066.25;;;20.67;53.97
8039;BME280;4062;49.844;8.120;2022-07-29T03:11:29;99060.03;;;20.66;53.67
8039;BME280;4062;49.844;8.120;2022-07-29T03:13:31;99065.53;;;20.65;53.76
8039;BME280;4062;49.844;8.120;2022-07-29T03:15:33;99071.72;;;20.65;53.76
8039;BME280;4062;49.844;8.120;2022-07-29T03:17:35;99067.19;;;20.66;53.67
8039;BME280;4062;49.844;8.120;2022-07-29T03:19:37;99068.09;;;20.66;53.89
8039;BME280;4062;49.844;8.120;2022-07-29T03:21:38;99075.25;;;20.66;53.61
8039;BME280;4062;49.844;8.120;2022-07-29T03:23:43;99075.25;;;20.66;53.60
8039;BME280;4062;49.844;8.120;2022-07-29T03:25:48;99072.56;;;20.66;53.72
8039;BME280;4062;49.844;8.120;2022-07-29T03:27:49;99089.56;;;20.66;53.94
8039;BME280;4062;49.844;8.120;2022-07-29T03:29:50;99077.94;;;20.66;53.98
8039;BME280;4062;49.844;8.120;2022-07-29T03:31:51;99068.19;;;20.65;53.74
8039;BME280;4062;49.844;8.120;2022-07-29T03:33:51;99076.25;;;20.65;53.73
8039;BME280;4062;49.844;8.120;2022-07-29T03:35:52;99073.56;;;20.65;54.02
8039;BME280;4062;49.844;8.120;2022-07-29T03:37:53;99074.41;;;20.65;53.70
8039;BME280;4062;49.844;8.120;2022-07-29T03:39:57;99074.41;;;20.65;54.07
8039;BME280;4062;49.844;8.120;2022-07-29T03:41:59;99075.25;;;20.66;54.13
8039;BME280;4062;49.844;8.120;2022-07-29T03:44:02;99078.94;;;20.65;54.08
8039;BME280;4062;49.844;8.120;2022-07-29T03:46:07;99077.94;;;20.66;54.08
8039;BME280;4062;49.844;8.120;2022-07-29T03:48:14;99075.38;;;20.64;53.97
8039;BME280;4062;49.844;8.120;2022-07-29T03:50:16;99072.69;;;20.64;53.94
8039;BME280;4062;49.844;8.120;2022-07-29T03:52:19;99077.09;;;20.65;53.74
8039;BME280;4062;49.844;8.120;2022-07-29T03:54:20;99081.63;;;20.65;53.76
8039;BME280;4062;49.844;8.120;2022-07-29T03:56:22;99082.47;;;20.65;54.07
8039;BME280;4062;49.844;8.120;2022-07-29T03:58:26;99087.00;;;20.65;53.95
8039;BME280;4062;49.844;8.120;2022-07-29T04:00:27;99082.47;;;20.65;53.64
8039;BME280;4062;49.844;8.120;2022-07-29T04:02:29;99086.13;;;20.64;53.89
8039;BME280;4062;49.844;8.120;2022-07-29T04:04:33;99085.28;;;20.64;53.68
8039;BME280;4062;49.844;8.120;2022-07-29T04:06:43;99087.84;;;20.65;54.10
8039;BME280;4062;49.844;8.120;2022-07-29T04:08:44;99083.44;;;20.64;54.00
8039;BME280;4062;49.844;8.120;2022-07-29T04:10:45;99091.47;;;20.64;54.09
8039;BME280;4062;49.844;8.120;2022-07-29T04:12:47;99088.69;;;20.66;53.98
8039;BME280;4062;49.844;8.120;2022-07-29T04:14:48;99094.03;;;20.66;53.97
8039;BME280;4062;49.844;8.120;2022-07-29T04:16:49;99088.69;;;20.66;53.95
8039;BME280;4062;49.844;8.120;2022-07-29T04:18:49;99089.69;;;20.65;53.83
8039;BME280;4062;49.844;8.120;2022-07-29T04:20:50;99093.19;;;20.65;53.82
8039;BME280;4062;49.844;8.120;2022-07-29T04:22:51;99093.31;;;20.64;54.28
8039;BME280;4062;49.844;8.120;2022-07-29T04:24:51;99094.16;;;20.64;53.73
8039;BME280;4062;49.844;8.120;2022-07-29T04:26:52;99089.69;;;20.65;53.88
8039;BME280;4062;49.844;8.120;2022-07-29T04:28:53;99096.00;;;20.64;54.03
8039;BME280;4062;49.844;8.120;2022-07-29T04:30:54;99095.03;;;20.65;54.11
8039;BME280;4062;49.844;8.120;2022-07-29T04:32:54;99094.16;;;20.64;53.83
8039;BME280;4062;49.844;8.120;2022-07-29T04:34:55;99097.72;;;20.65;54.16
8039;BME280;4062;49.844;8.120;2022-07-29T04:36:56;99096.00;;;20.64;53.80
8039;BME280;4062;49.844;8.120;2022-07-29T04:38:56;99095.03;;;20.65;53.88
8039;BME280;4062;49.844;8.120;2022-07-29T04:40:58;99096.00;;;20.64;53.72
8039;BME280;4062;49.844;8.120;2022-07-29T04:43:00;99101.25;;;20.65;54.03
8039;BME280;4062;49.844;8.120;2022-07-29T04:45:01;99087.94;;;20.64;54.10
8039;BME280;4062;49.844;8.120;2022-07-29T04:47:01;99097.72;;;20.65;54.07
8039;BME280;4062;49.844;8.120;2022-07-29T04:49:03;99090.63;;;20.64;53.86
8039;BME280;4062;49.844;8.120;2022-07-29T04:51:04;99090.63;;;20.64;54.18
8039;BME280;4062;49.844;8.120;2022-07-29T04:53:05;99087.00;;;20.65;53.89
8039;BME280;4062;49.844;8.120;2022-07-29T04:55:06;99082.59;;;20.64;54.02
8039;BME280;4062;49.844;8.120;2022-07-29T04:57:07;99093.31;;;20.64;53.90
8039;BME280;4062;49.844;8.120;2022-07-29T04:59:08;99091.47;;;20.64;54.21
8039;BME280;4062;49.844;8.120;2022-07-29T05:01:09;99096.00;;;20.64;53.85
8039;BME280;4062;49.844;8.120;2022-07-29T05:03:10;99099.53;;;20.64;53.82
8039;BME280;4062;49.844;8.120;2022-07-29T05:05:10;99098.69;;;20.64;53.77
8039;BME280;4062;49.844;8.120;2022-07-29T05:07:11;99104.06;;;20.64;53.74
8039;BME280;4062;49.844;8.120;2022-07-29T05:09:12;99096.84;;;20.64;54.01
8039;BME280;4062;49.844;8.120;2022-07-29T05:11:12;99103.09;;;20.65;54.20
8039;BME280;4062;49.844;8.120;2022-07-29T05:13:13;99107.59;;;20.64;54.02
8039;BME280;4062;49.844;8.120;2022-07-29T05:15:14;99104.91;;;20.64;53.95
8039;BME280;4062;49.844;8.120;2022-07-29T05:17:15;99107.59;;;20.64;54.16
8039;BME280;4062;49.844;8.120;2022-07-29T05:19:15;99113.91;;;20.63;54.28
8039;BME280;4062;49.844;8.120;2022-07-29T05:21:16;99107.59;;;20.64;54.17
8039;BME280;4062;49.844;8.120;2022-07-29T05:23:17;99104.06;;;20.64;53.85
8039;BME280;4062;49.844;8.120;2022-07-29T05:25:18;99096.00;;;20.64;53.68
8039;BME280;4062;49.844;8.120;2022-07-29T05:27:18;99102.22;;;20.64;53.88
8039;BME280;4062;49.844;8.120;2022-07-29T05:29:19;99098.69;;;20.64;53.88
8039;BME280;4062;49.844;8.120;2022-07-29T05:31:20;99102.22;;;20.64;54.07
8039;BME280;4062;49.844;8.120;2022-07-29T05:33:21;99099.66;;;20.62;53.88
8039;BME280;4062;49.844;8.120;2022-07-29T05:35:21;99109.44;;;20.64;54.21
8039;BME280;4062;49.844;8.120;2022-07-29T05:37:22;99104.06;;;20.64;53.98
8039;BME280;4062;49.844;8.120;2022-07-29T05:39:24;99104.06;;;20.64;53.98
8039;BME280;4062;49.844;8.120;2022-07-29T05:41:25;99112.13;;;20.64;54.03
8039;BME280;4062;49.844;8.120;2022-07-29T05:43:29;99108.56;;;20.63;54.10
8039;BME280;4062;49.844;8.120;2022-07-29T05:45:30;99106.75;;;20.64;53.83
8039;BME280;4062;49.844;8.120;2022-07-29T05:47:31;99106.75;;;20.64;53.77
8039;BME280;4062;49.844;8.120;2022-07-29T05:49:32;99117.47;;;20.64;53.84
8039;BME280;4062;49.844;8.120;2022-07-29T05:51:34;99122.84;;;20.64;53.98
8039;BME280;4062;49.844;8.120;2022-07-29T05:53:35;99123.69;;;20.64;53.66
8039;BME280;4062;49.844;8.120;2022-07-29T05:55:36;99125.53;;;20.64;53.95
8039;BME280;4062;49.844;8.120;2022-07-29T05:57:37;99126.38;;;20.64;53.85
8039;BME280;4062;49.844;8.120;2022-07-29T05:59:38;99120.16;;;20.64;54.22
8039;BME280;4062;49.844;8.120;2022-07-29T06:01:38;99121.97;;;20.63;53.79
8039;BME280;4062;49.844;8.120;2022-07-29T06:03:40;99125.53;;;20.64;54.07
8039;BME280;4062;49.844;8.120;2022-07-29T06:05:41;99122.84;;;20.64;53.79
8039;BME280;4062;49.844;8.120;2022-07-29T06:07:42;99112.13;;;20.64;53.76
8039;BME280;4062;49.844;8.120;2022-07-29T06:09:43;99111.25;;;20.63;53.71
8039;BME280;4062;49.844;8.120;2022-07-29T06:11:44;99116.59;;;20.63;53.99
8039;BME280;4062;49.844;8.120;2022-07-29T06:13:44;99112.97;;;20.64;54.07
8039;BME280;4062;49.844;8.120;2022-07-29T06:15:45;99120.25;;;20.62;53.75
8039;BME280;4062;49.844;8.120;2022-07-29T06:17:46;99127.34;;;20.63;54.09
8039;BME280;4062;49.844;8.120;2022-07-29T06:19:46;99130.91;;;20.64;54.08
8039;BME280;4062;49.844;8.120;2022-07-29T06:21:47;99128.22;;;20.64;54.02
8039;BME280;4062;49.844;8.120;2022-07-29T06:23:48;99130.91;;;20.64;54.08
8039;BME280;4062;49.844;8.120;2022-07-29T06:25:49;99125.53;;;20.64;54.22
8039;BME280;4062;49.844;8.120;2022-07-29T06:27:50;99128.22;;;20.64;53.90
8039;BME280;4062;49.844;8.120;2022-07-29T06:29:50;99124.66;;;20.63;54.00
8039;BME280;4062;49.844;8.120;2022-07-29T06:31:51;99130.91;;;20.64;54.18
8039;BME280;4062;49.844;8.120;2022-07-29T06:33:52;99133.59;;;20.64;54.09
8039;BME280;4062;49.844;8.120;2022-07-29T06:35:53;99137.13;;;20.64;54.03
8039;BME280;4062;49.844;8.120;2022-07-29T06:37:54;99140.75;;;20.63;54.11
8039;BME280;4062;49.844;8.120;2022-07-29T06:39:54;99133.59;;;20.64;54.14
8039;BME280;4062;49.844;8.120;2022-07-29T06:42:13;99141.63;;;20.64;54.01
8039;BME280;4062;49.844;8.120;2022-07-29T06:44:15;99127.34;;;20.63;54.18
8039;BME280;4062;49.844;8.120;2022-07-29T06:46:17;99137.13;;;20.64;53.98
8039;BME280;4062;49.844;8.120;2022-07-29T06:48:18;99131.75;;;20.64;53.84
8039;BME280;4062;49.844;8.120;2022-07-29T06:50:19;99130.91;;;20.64;54.09
8039;BME280;4062;49.844;8.120;2022-07-29T06:52:20;99138.94;;;20.64;53.85
8039;BME280;4062;49.844;8.120;2022-07-29T06:54:21;99146.03;;;20.65;53.70
8039;BME280;4062;49.844;8.120;2022-07-29T06:56:22;99146.03;;;20.65;53.54
8039;BME280;4062;49.844;8.120;2022-07-29T06:58:23;99138.00;;;20.65;53.34
8039;BME280;4062;49.844;8.120;2022-07-29T07:00:23;99135.31;;;20.65;53.78
8039;BME280;4062;49.844;8.120;2022-07-29T07:02:24;99143.25;;;20.66;53.69
8039;BME280;4062;49.844;8.120;2022-07-29T07:04:25;99144.09;;;20.67;53.59
8039;BME280;4062;49.844;8.120;2022-07-29T07:06:26;99148.50;;;20.68;53.43
8039;BME280;4062;49.844;8.120;2022-07-29T07:08:26;99151.19;;;20.68;53.88
8039;BME280;4062;49.844;8.120;2022-07-29T07:10:27;99149.25;;;20.70;53.77
8039;BME280;4062;49.844;8.120;2022-07-29T07:12:31;99149.25;;;20.70;53.80
8039;BME280;4062;49.844;8.120;2022-07-29T07:14:34;99145.72;;;20.69;53.54
8039;BME280;4062;49.844;8.120;2022-07-29T07:16:35;99151.81;;;20.71;53.42
8039;BME280;4062;49.844;8.120;2022-07-29T07:18:35;99153.66;;;20.71;53.43
8039;BME280;4062;49.844;8.120;2022-07-29T07:20:36;99148.28;;;20.71;53.75
8039;BME280;4062;49.844;8.120;2022-07-29T07:22:37;99154.50;;;20.71;53.76
8039;BME280;4062;49.844;8.120;2022-07-29T07:24:38;99155.38;;;20.72;53.43
8039;BME280;4062;49.844;8.120;2022-07-29T07:26:38;99158.06;;;20.72;53.53
8039;BME280;4062;49.844;8.120;2022-07-29T07:28:40;99158.91;;;20.72;53.60
8039;BME280;4062;49.844;8.120;2022-07-29T07:30:41;99157.19;;;20.71;53.68
8039;BME280;4062;49.844;8.120;2022-07-29T07:32:44;99162.56;;;20.71;53.54
8039;BME280;4062;49.844;8.120;2022-07-29T07:34:45;99159.88;;;20.71;53.78
8039;BME280;4062;49.844;8.120;2022-07-29T07:36:46;99163.44;;;20.72;53.94
8039;BME280;4062;49.844;8.120;2022-07-29T07:38:46;99160.75;;;20.72;53.88
8039;BME280;4062;49.844;8.120;2022-07-29T07:40:47;99163.44;;;20.72;53.92
8039;BME280;4062;49.844;8.120;2022-07-29T07:42:48;99158.91;;;20.72;53.85
8039;BME280;4062;49.844;8.120;2022-07-29T07:44:48;99153.53;;;20.72;53.77
8039;BME280;4062;49.844;8.120;2022-07-29T07:46:49;99152.59;;;20.73;53.73
8039;BME280;4062;49.844;8.120;2022-07-29T07:48:50;99155.28;;;20.73;53.95
8039;BME280;4062;49.844;8.120;2022-07-29T07:50:52;99153.47;;;20.74;53.64
8039;BME280;4062;49.844;8.120;2022-07-29T07:52:55;99149.91;;;20.73;53.50
8039;BME280;4062;49.844;8.120;2022-07-29T07:54:58;99144.56;;;20.73;53.54
8039;BME280;4062;49.844;8.120;2022-07-29T07:56:58;99153.38;;;20.75;53.63
8039;BME280;4062;49.844;8.120;2022-07-29T07:58:59;99154.22;;;20.76;53.28
8039;BME280;4062;49.844;8.120;2022-07-29T08:01:00;99159.56;;;20.76;53.44
8039;BME280;4062;49.844;8.120;2022-07-29T08:03:00;99151.53;;;20.76;53.22
8039;BME280;4062;49.844;8.120;2022-07-29T08:05:01;99159.56;;;20.76;53.26
8039;BME280;4062;49.844;8.120;2022-07-29T08:07:02;99161.31;;;20.77;53.75
8039;BME280;4062;49.844;8.120;2022-07-29T08:09:04;99155.94;;;20.77;53.53
8039;BME280;4062;49.844;8.120;2022-07-29T08:11:05;99160.34;;;20.78;53.52
8039;BME280;4062;49.844;8.120;2022-07-29T08:13:08;99155.84;;;20.79;53.58
8039;BME280;4062;49.844;8.120;2022-07-29T08:15:09;99150.47;;;20.79;53.58
8039;BME280;4062;49.844;8.120;2022-07-29T08:17:10;99160.22;;;20.80;53.38
8039;BME280;4062;49.844;8.120;2022-07-29T08:19:11;99154.84;;;20.80;53.60
8039;BME280;4062;49.844;8.120;2022-07-29T08:21:15;99162.06;;;20.79;53.52
8039;BME280;4062;49.844;8.120;2022-07-29T08:23:16;99159.38;;;20.79;53.48
8039;BME280;4062;49.844;8.120;2022-07-29T08:25:19;99159.38;;;20.79;53.19
8039;BME280;4062;49.844;8.120;2022-07-29T08:27:21;99164.63;;;20.81;53.20
8039;BME280;4062;49.844;8.120;2022-07-29T08:29:22;99165.59;;;20.80;53.13
8039;BME280;4062;49.844;8.120;2022-07-29T08:31:23;99167.31;;;20.81;53.39
8039;BME280;4062;49.844;8.120;2022-07-29T08:33:24;99165.59;;;20.80;53.61
8039;BME280;4062;49.844;8.120;2022-07-29T08:35:25;99164.63;;;20.81;53.23
8039;BME280;4062;49.844;8.120;2022-07-29T08:37:26;99170.00;;;20.81;53.38
8039;BME280;4062;49.844;8.120;2022-07-29T08:39:26;99174.53;;;20.80;53.35
8039;BME280;4062;49.844;8.120;2022-07-29T08:41:27;99164.75;;;20.79;53.58
8039;BME280;4062;49.844;8.120;2022-07-29T08:43:28;99171.84;;;20.80;53.38
8039;BME280;4062;49.844;8.120;2022-07-29T08:45:29;99177.22;;;20.80;53.49
8039;BME280;4062;49.844;8.120;2022-07-29T08:47:31;99169.16;;;20.80;53.69
8039;BME280;4062;49.844;8.120;2022-07-29T08:49:34;99174.53;;;20.80;53.46
8039;BME280;4062;49.844;8.120;2022-07-29T08:51:40;99173.56;;;20.81;53.59
8039;BME280;4062;49.844;8.120;2022-07-29T08:53:43;99170.97;;;20.80;53.20
8039;BME280;4062;49.844;8.120;2022-07-29T08:55:49;99166.47;;;20.80;53.69
8039;BME280;4062;49.844;8.120;2022-07-29T08:57:50;99178.06;;;20.81;53.63
8039;BME280;4062;49.844;8.120;2022-07-29T08:59:52;99171.97;;;20.79;53.70
8039;BME280;4062;49.844;8.120;2022-07-29T09:01:55;99163.91;;;20.79;53.74
8039;BME280;4062;49.844;8.120;2022-07-29T09:03:59;99170.97;;;20.80;53.32
8039;BME280;4062;49.844;8.120;2022-07-29T09:06:03;99159.38;;;20.79;53.62
8039;BME280;4062;49.844;8.120;2022-07-29T09:08:04;99163.91;;;20.79;53.61
8039;BME280;4062;49.844;8.120;2022-07-29T09:10:06;99162.06;;;20.79;53.58
8039;BME280;4062;49.844;8.120;2022-07-29T09:12:07;99166.59;;;20.79;53.33
8039;BME280;4062;49.844;8.120;2022-07-29T09:14:10;99164.75;;;20.79;53.37
8039;BME280;4062;49.844;8.120;2022-07-29T09:16:11;99157.66;;;20.78;53.68
8039;BME280;4062;49.844;8.120;2022-07-29T09:18:12;99161.22;;;20.79;53.56
8039;BME280;4062;49.844;8.120;2022-07-29T09:20:37;99164.75;;;20.79;53.42
8039;BME280;4062;49.844;8.120;2022-07-29T09:23:07;99167.44;;;20.79;53.31
8039;BME280;4062;49.844;8.120;2022-07-29T09:25:08;99163.91;;;20.79;53.56
8039;BME280;4062;49.844;8.120;2022-07-29T09:27:25;99164.75;;;20.79;53.32
8039;BME280;4062;49.844;8.120;2022-07-29T09:29:29;99156.81;;;20.77;53.71
8039;BME280;4062;49.844;8.120;2022-07-29T09:31:36;99163.91;;;20.79;53.77
8039;BME280;4062;49.844;8.120;2022-07-29T09:33:37;99163.03;;;20.78;53.56
8039;BME280;4062;49.844;8.120;2022-07-29T09:35:42;99165.72;;;20.78;53.83
8039;BME280;4062;49.844;8.120;2022-07-29T09:37:44;99158.63;;;20.77;53.72
8039;BME280;4062;49.844;8.120;2022-07-29T09:39:44;99163.91;;;20.79;53.67
8039;BME280;4062;49.844;8.120;2022-07-29T09:41:52;99156.69;;;20.79;53.62
8039;BME280;4062;49.844;8.120;2022-07-29T09:43:57;99156.69;;;20.79;53.66
8039;BME280;4062;49.844;8.120;2022-07-29T09:46:12;99160.22;;;20.80;53.79
8039;BME280;4062;49.844;8.120;2022-07-29T09:48:19;99165.59;;;20.80;53.45
8039;BME280;4062;49.844;8.120;2022-07-29T09:50:20;99164.75;;;20.79;53.88
8039;BME280;4062;49.844;8.120;2022-07-29T09:52:26;99165.50;;;20.81;53.57
8039;BME280;4062;49.844;8.120;2022-07-29T09:54:27;99161.94;;;20.81;53.62
8039;BME280;4062;49.844;8.120;2022-07-29T09:56:41;99169.03;;;20.82;53.60
8039;BME280;4062;49.844;8.120;2022-07-29T09:58:42;99161.09;;;20.80;53.70
8039;BME280;4062;49.844;8.120;2022-07-29T10:00:44;99161.09;;;20.80;53.83
8039;BME280;4062;49.844;8.120;2022-07-29T10:02:47;99165.59;;;20.80;53.95
8039;BME280;4062;49.844;8.120;2022-07-29T10:04:47;99158.41;;;20.80;53.75
8039;BME280;4062;49.844;8.120;2022-07-29T10:07:00;99155.72;;;20.80;53.39
8039;BME280;4062;49.844;8.120;2022-07-29T10:09:11;99167.31;;;20.81;53.60
8039;BME280;4062;49.844;8.120;2022-07-29T10:11:15;99159.25;;;20.81;53.60
8039;BME280;4062;49.844;8.120;2022-07-29T10:13:16;99156.56;;;20.81;53.50
8039;BME280;4062;49.844;8.120;2022-07-29T10:15:16;99158.41;;;20.80;53.51
8039;BME280;4062;49.844;8.120;2022-07-29T10:17:18;99155.72;;;20.80;53.68
8039;BME280;4062;49.844;8.120;2022-07-29T10:19:19;99158.41;;;20.80;53.68
8039;BME280;4062;49.844;8.120;2022-07-29T10:21:20;99159.38;;;20.79;53.92
8039;BME280;4062;49.844;8.120;2022-07-29T10:23:21;99153.16;;;20.79;53.93
8039;BME280;4062;49.844;8.120;2022-07-29T10:25:24;99154.84;;;20.80;53.61
8039;BME280;4062;49.844;8.120;2022-07-29T10:27:25;99151.31;;;20.79;53.97
8039;BME280;4062;49.844;8.120;2022-07-29T10:29:27;99160.13;;;20.81;53.81
8039;BME280;4062;49.844;8.120;2022-07-29T10:32:27;99145.00;;;20.80;53.57
8039;BME280;4062;49.844;8.120;2022-07-29T10:37:06;99145.84;;;20.81;53.81
8039;BME280;4062;49.844;8.120;2022-07-29T10:42:02;99135.97;;;20.81;53.75
8039;BME280;4062;49.844;8.120;2022-07-29T10:44:20;99139.50;;;20.82;53.68
8039;BME280;4062;49.844;8.120;2022-07-29T10:46:21;99139.63;;;20.80;53.67
8039;BME280;4062;49.844;8.120;2022-07-29T10:48:23;99143.16;;;20.81;53.75
8039;BME280;4062;49.844;8.120;2022-07-29T10:50:24;99135.97;;;20.81;53.56
8039;BME280;4062;49.844;8.120;2022-07-29T10:54:48;99133.28;;;20.81;53.54
8039;BME280;4062;49.844;8.120;2022-07-29T10:56:51;99127.91;;;20.81;53.68
8039;BME280;4062;49.844;8.120;2022-07-29T11:01:30;99124.34;;;20.81;53.51
8039;BME280;4062;49.844;8.120;2022-07-29T11:03:48;99113.59;;;20.81;53.51
8039;BME280;4062;49.844;8.120;2022-07-29T11:05:55;99125.22;;;20.81;53.49
8039;BME280;4062;49.844;8.120;2022-07-29T11:10:20;99128.00;;;20.80;53.87
8039;BME280;4062;49.844;8.120;2022-07-29T11:14:58;99124.34;;;20.81;53.44
8039;BME280;4062;49.844;8.120;2022-07-29T11:17:05;99123.50;;;20.80;53.68
8039;BME280;4062;49.844;8.120;2022-07-29T11:21:38;99123.50;;;20.80;53.97
8039;BME280;4062;49.844;8.120;2022-07-29T11:23:39;99124.34;;;20.81;53.54
8039;BME280;4062;49.844;8.120;2022-07-29T11:25:39;99122.53;;;20.81;53.49
8039;BME280;4062;49.844;8.120;2022-07-29T11:27:40;99127.03;;;20.81;53.52
8039;BME280;4062;49.844;8.120;2022-07-29T11:29:55;99122.53;;;20.81;53.50
8039;BME280;4062;49.844;8.120;2022-07-29T11:32:10;99128.88;;;20.80;53.51
8039;BME280;4062;49.844;8.120;2022-07-29T11:34:32;99127.91;;;20.81;53.88
8039;BME280;4062;49.844;8.120;2022-07-29T11:36:33;99129.84;;;20.79;53.71
8039;BME280;4062;49.844;8.120;2022-07-29T11:38:34;99122.63;;;20.80;53.71
8039;BME280;4062;49.844;8.120;2022-07-29T11:40:35;99121.78;;;20.79;53.73